Time;durP1;ratioP1;P1;durP2;ratioP2;P2;SDS_P1;SDS_P2;PMS_P1;PMS_P2;Temp;Humidity;BMP_temperature;BMP_pressure;BME280_temperature;BME280_humidity;BME280_pressure;Samples;Min_cycle;Max_cycle;Signal;HPM_P1;HPM_P2
2023/06/27 00:01:17;;;;;;;5.10;2.40;;;;;;;;;;5030441;28;20488;-64
2023/06/27 00:03:44;;;;;;;3.97;2.38;;;;;;;;;;5035753;28;20954;-63
2023/06/27 00:06:11;;;;;;;3.60;2.10;;;;;;;;;;5031275;28;20426;-63
2023/06/27 00:08:38;;;;;;;3.58;2.40;;;;;;;;;;5036916;28;20412;-63
2023/06/27 00:11:04;;;;;;;4.13;2.20;;;;;;;;;;5030397;28;20509;-63
2023/06/27 00:13:32;;;;;;;2.75;2.30;;;;;;;;;;5041709;28;20433;-63
2023/06/27 00:16:00;;;;;;;3.40;2.20;;;;;;;;;;5037766;28;20791;-63
2023/06/27 00:18:34;;;;;;;5.03;2.70;;;;;;;;;;5042097;28;20524;-63
2023/06/27 00:21:01;;;;;;;4.65;2.40;;;;;;;;;;5037532;28;20468;-63
2023/06/27 00:23:33;;;;;;;3.28;2.42;;;;;;;;;;5040284;28;20467;-63
2023/06/27 00:26:00;;;;;;;6.10;2.43;;;;;;;;;;5040695;28;20421;-63
2023/06/27 00:28:27;;;;;;;5.78;2.58;;;;;;;;;;5039611;28;20531;-63
2023/06/27 00:30:54;;;;;;;3.47;2.38;;;;;;;;;;5040776;28;20417;-63
2023/06/27 00:33:22;;;;;;;5.43;2.60;;;;;;;;;;5040061;28;20474;-63
2023/06/27 00:35:49;;;;;;;7.95;2.40;;;;;;;;;;5034745;28;20919;-63
2023/06/27 00:38:16;;;;;;;4.07;2.50;;;;;;;;;;5033505;28;20430;-63
2023/06/27 00:40:43;;;;;;;4.93;2.58;;;;;;;;;;5041149;28;20479;-63
2023/06/27 00:43:10;;;;;;;4.07;2.50;;;;;;;;;;5039914;28;20415;-64
2023/06/27 00:45:37;;;;;;;4.88;2.50;;;;;;;;;;5040551;28;20476;-63
2023/06/27 00:48:04;;;;;;;3.80;2.40;;;;;;;;;;5038060;28;20421;-64
2023/06/27 00:50:33;;;;;;;6.60;2.60;;;;;;;;;;5044007;28;20416;-63
2023/06/27 00:53:00;;;;;;;5.50;2.55;;;;;;;;;;5042212;28;20536;-63
2023/06/27 00:55:28;;;;;;;5.90;2.75;;;;;;;;;;5044222;28;20429;-63
2023/06/27 00:57:55;;;;;;;6.60;2.60;;;;;;;;;;5042801;28;20426;-63
2023/06/27 01:00:22;;;;;;;6.07;2.63;;;;;;;;;;5044533;28;20833;-62
2023/06/27 01:02:49;;;;;;;3.63;2.40;;;;;;;;;;5045004;28;20412;-62
2023/06/27 01:05:17;;;;;;;6.22;2.58;;;;;;;;;;5043729;28;20418;-63
2023/06/27 01:07:49;;;;;;;3.55;2.20;;;;;;;;;;5041465;28;20499;-64
2023/06/27 01:10:21;;;;;;;5.22;2.58;;;;;;;;;;5037140;28;20999;-63
2023/06/27 01:12:53;;;;;;;4.93;2.63;;;;;;;;;;5044636;28;20485;-64
2023/06/27 01:15:20;;;;;;;5.80;2.75;;;;;;;;;;5039945;28;20461;-64
2023/06/27 01:17:47;;;;;;;5.70;2.88;;;;;;;;;;5044629;28;20832;-63
2023/06/27 01:20:14;;;;;;;4.60;2.70;;;;;;;;;;5038655;28;20834;-64
2023/06/27 01:22:43;;;;;;;6.43;2.72;;;;;;;;;;5043655;28;20466;-63
2023/06/27 01:25:12;;;;;;;5.53;2.70;;;;;;;;;;5044661;28;20450;-64
2023/06/27 01:27:39;;;;;;;5.22;2.80;;;;;;;;;;5043757;28;20932;-63
2023/06/27 01:30:08;;;;;;;7.57;2.97;;;;;;;;;;5041249;28;20790;-64
2023/06/27 01:32:37;;;;;;;4.20;2.55;;;;;;;;;;5043474;28;20473;-63
2023/06/27 01:35:07;;;;;;;4.32;2.80;;;;;;;;;;5040891;28;20979;-63
2023/06/27 01:37:36;;;;;;;7.82;2.90;;;;;;;;;;5041751;28;20461;-63
2023/06/27 01:40:06;;;;;;;4.47;2.58;;;;;;;;;;5041051;28;20423;-64
2023/06/27 01:42:36;;;;;;;5.83;2.70;;;;;;;;;;5043517;28;20511;-63
2023/06/27 01:45:04;;;;;;;4.25;2.60;;;;;;;;;;5043220;28;20422;-63
2023/06/27 01:47:31;;;;;;;4.75;2.60;;;;;;;;;;5043703;28;20420;-63
2023/06/27 01:49:58;;;;;;;4.93;2.80;;;;;;;;;;5043765;28;20947;-63
2023/06/27 01:52:26;;;;;;;6.72;2.70;;;;;;;;;;5038142;28;21016;-63
2023/06/27 01:54:53;;;;;;;5.80;2.90;;;;;;;;;;5042594;28;20494;-63
2023/06/27 01:57:20;;;;;;;6.47;3.25;;;;;;;;;;5042672;28;20475;-63
2023/06/27 01:59:48;;;;;;;5.93;2.88;;;;;;;;;;5042346;28;20423;-63
2023/06/27 02:02:15;;;;;;;6.28;3.13;;;;;;;;;;5041673;28;20425;-63
2023/06/27 02:04:42;;;;;;;5.38;3.45;;;;;;;;;;5039841;28;20413;-63
2023/06/27 02:07:09;;;;;;;6.40;3.10;;;;;;;;;;5038461;28;20470;-63
2023/06/27 02:09:36;;;;;;;8.25;3.17;;;;;;;;;;5042623;28;22332;-63
2023/06/27 02:12:04;;;;;;;4.88;2.92;;;;;;;;;;5035548;28;20426;-63
2023/06/27 02:14:31;;;;;;;7.37;3.57;;;;;;;;;;5044091;28;20502;-63
2023/06/27 02:16:59;;;;;;;6.82;3.40;;;;;;;;;;5041819;28;20422;-63
2023/06/27 02:19:26;;;;;;;6.32;3.40;;;;;;;;;;5041246;28;20868;-63
2023/06/27 02:21:54;;;;;;;6.30;3.60;;;;;;;;;;5043167;28;20450;-62
2023/06/27 02:24:21;;;;;;;6.13;3.35;;;;;;;;;;5043153;28;20417;-63
2023/06/27 02:26:48;;;;;;;6.85;3.70;;;;;;;;;;5040852;28;20479;-64
2023/06/27 02:29:15;;;;;;;7.75;3.40;;;;;;;;;;5042517;28;20414;-64
2023/06/27 02:31:42;;;;;;;7.30;3.50;;;;;;;;;;5043008;28;20890;-63
2023/06/27 02:34:10;;;;;;;6.88;3.60;;;;;;;;;;5037987;28;20834;-63
2023/06/27 02:36:37;;;;;;;6.05;3.40;;;;;;;;;;5040117;28;20444;-63
2023/06/27 02:39:04;;;;;;;5.78;3.30;;;;;;;;;;5039997;28;20595;-63
2023/06/27 02:41:31;;;;;;;8.68;3.80;;;;;;;;;;5041009;28;21327;-63
2023/06/27 02:43:58;;;;;;;7.03;3.70;;;;;;;;;;5043332;28;20553;-64
2023/06/27 02:46:25;;;;;;;7.40;3.38;;;;;;;;;;5037805;28;20424;-63
2023/06/27 02:48:52;;;;;;;9.15;3.30;;;;;;;;;;5041208;28;20862;-63
2023/06/27 02:51:21;;;;;;;10.02;3.60;;;;;;;;;;5037233;28;20469;-63
2023/06/27 02:53:48;;;;;;;7.07;3.38;;;;;;;;;;5037341;28;20462;-62
2023/06/27 02:56:15;;;;;;;7.10;3.50;;;;;;;;;;5040489;28;20518;-62
2023/06/27 02:58:42;;;;;;;5.10;3.13;;;;;;;;;;5041487;28;20451;-63
2023/06/27 03:01:09;;;;;;;7.10;3.40;;;;;;;;;;5041197;28;20505;-63
2023/06/27 03:03:36;;;;;;;7.20;3.40;;;;;;;;;;5041281;28;20849;-63
2023/06/27 03:06:06;;;;;;;7.13;3.67;;;;;;;;;;5040499;28;20415;-63
2023/06/27 03:08:35;;;;;;;6.65;3.65;;;;;;;;;;5035150;28;20462;-63
2023/06/27 03:11:02;;;;;;;6.63;3.40;;;;;;;;;;5039118;28;20458;-63
2023/06/27 03:13:29;;;;;;;7.43;3.53;;;;;;;;;;5040645;28;20479;-63
2023/06/27 03:15:57;;;;;;;5.50;3.40;;;;;;;;;;5041258;28;20471;-63
2023/06/27 03:18:24;;;;;;;8.73;3.70;;;;;;;;;;5042709;28;20417;-63
2023/06/27 03:20:50;;;;;;;10.45;3.50;;;;;;;;;;5040414;28;20826;-63
2023/06/27 03:23:18;;;;;;;6.55;3.70;;;;;;;;;;5040035;28;20417;-63
2023/06/27 03:25:46;;;;;;;5.72;3.67;;;;;;;;;;5036322;28;20410;-63
2023/06/27 03:28:13;;;;;;;6.55;3.58;;;;;;;;;;5040831;28;20460;-63
2023/06/27 03:30:43;;;;;;;7.50;3.10;;;;;;;;;;5040799;28;20421;-63
2023/06/27 03:33:10;;;;;;;5.72;3.90;;;;;;;;;;5041415;28;20464;-63
2023/06/27 03:35:37;;;;;;;6.88;3.75;;;;;;;;;;5040570;28;20470;-63
2023/06/27 03:38:04;;;;;;;5.07;3.38;;;;;;;;;;5040384;28;20415;-63
2023/06/27 03:40:31;;;;;;;4.68;3.00;;;;;;;;;;5037829;28;20421;-64
2023/06/27 03:43:00;;;;;;;6.63;3.45;;;;;;;;;;5035920;28;20465;-64
2023/06/27 03:45:28;;;;;;;6.32;3.38;;;;;;;;;;5040003;28;20556;-63
2023/06/27 03:47:55;;;;;;;7.35;3.35;;;;;;;;;;5042489;28;20999;-63
2023/06/27 03:50:22;;;;;;;6.23;3.43;;;;;;;;;;5040545;28;20538;-63
2023/06/27 03:52:49;;;;;;;6.72;3.20;;;;;;;;;;5039515;28;20430;-63
2023/06/27 03:55:16;;;;;;;5.53;3.33;;;;;;;;;;5041610;28;20421;-69
2023/06/27 03:57:43;;;;;;;7.30;3.10;;;;;;;;;;5035132;28;21054;-63
2023/06/27 04:00:12;;;;;;;7.63;3.67;;;;;;;;;;5041478;28;20822;-64
2023/06/27 04:02:39;;;;;;;6.68;3.38;;;;;;;;;;5041397;28;20421;-63
2023/06/27 04:05:06;;;;;;;7.47;3.10;;;;;;;;;;5033011;28;20431;-63
2023/06/27 04:07:33;;;;;;;8.13;3.80;;;;;;;;;;5039862;28;20527;-63
2023/06/27 04:10:00;;;;;;;7.00;3.30;;;;;;;;;;5039242;28;20761;-63
2023/06/27 04:12:27;;;;;;;8.18;3.40;;;;;;;;;;5037371;28;20424;-63
2023/06/27 04:14:54;;;;;;;8.20;3.28;;;;;;;;;;5041122;28;20482;-63
2023/06/27 04:17:22;;;;;;;6.55;3.35;;;;;;;;;;5039389;28;20461;-63
2023/06/27 04:19:49;;;;;;;10.30;3.30;;;;;;;;;;5039362;28;20414;-63
2023/06/27 04:22:16;;;;;;;6.45;3.30;;;;;;;;;;5035786;28;20488;-65
2023/06/27 04:24:44;;;;;;;6.13;3.40;;;;;;;;;;5040665;28;20409;-65
2023/06/27 04:27:10;;;;;;;5.43;3.10;;;;;;;;;;5040543;28;20919;-65
2023/06/27 04:29:38;;;;;;;8.98;3.85;;;;;;;;;;5041936;28;20423;-65
2023/06/27 04:32:07;;;;;;;8.93;3.45;;;;;;;;;;5039944;28;20811;-64
2023/06/27 04:34:36;;;;;;;7.45;3.30;;;;;;;;;;5039236;28;20520;-64
2023/06/27 04:37:04;;;;;;;8.45;3.17;;;;;;;;;;5032243;28;20420;-64
2023/06/27 04:39:31;;;;;;;7.33;3.33;;;;;;;;;;5031077;28;20515;-63
2023/06/27 04:41:58;;;;;;;6.18;3.38;;;;;;;;;;5037119;28;20418;-66
2023/06/27 04:44:25;;;;;;;7.80;2.92;;;;;;;;;;5040435;28;20410;-64
2023/06/27 04:46:52;;;;;;;5.93;3.00;;;;;;;;;;5036584;28;20452;-64
2023/06/27 04:49:19;;;;;;;7.05;3.17;;;;;;;;;;5040377;28;20417;-64
2023/06/27 04:51:47;;;;;;;8.57;3.30;;;;;;;;;;5041625;28;20902;-64
2023/06/27 04:54:14;;;;;;;7.85;3.20;;;;;;;;;;5038017;28;20431;-64
2023/06/27 04:56:41;;;;;;;7.93;3.35;;;;;;;;;;5042222;28;20416;-64
2023/06/27 04:59:08;;;;;;;9.57;3.50;;;;;;;;;;5038722;28;20886;-64
2023/06/27 05:01:35;;;;;;;7.83;3.40;;;;;;;;;;5041665;28;20828;-64
2023/06/27 05:04:05;;;;;;;28.00;16.50;;;;;;;;;;5035896;28;20415;-65
2023/06/27 05:06:32;;;;;;;7.97;3.40;;;;;;;;;;5039946;28;20865;-65
2023/06/27 05:09:01;;;;;;;8.63;3.63;;;;;;;;;;5038235;28;20415;-65
2023/06/27 05:11:28;;;;;;;7.77;3.47;;;;;;;;;;5039720;28;20414;-66
2023/06/27 05:13:55;;;;;;;8.00;3.60;;;;;;;;;;5041115;28;20809;-65
2023/06/27 05:16:23;;;;;;;8.55;3.83;;;;;;;;;;5036968;28;20985;-65
2023/06/27 05:18:50;;;;;;;11.88;3.97;;;;;;;;;;5038680;28;20418;-65
2023/06/27 05:21:17;;;;;;;19.02;4.53;;;;;;;;;;5039679;28;20914;-65
2023/06/27 05:23:44;;;;;;;10.25;4.10;;;;;;;;;;5039793;28;20418;-66
2023/06/27 05:26:12;;;;;;;9.05;3.67;;;;;;;;;;5038153;28;20402;-65
2023/06/27 05:28:40;;;;;;;7.70;4.00;;;;;;;;;;5040095;28;20935;-66
2023/06/27 05:31:07;;;;;;;7.63;3.90;;;;;;;;;;5041106;28;20428;-66
2023/06/27 05:33:34;;;;;;;8.70;3.53;;;;;;;;;;5037661;28;20431;-65
2023/06/27 05:36:01;;;;;;;9.48;4.15;;;;;;;;;;5041781;28;20489;-65
2023/06/27 05:38:28;;;;;;;12.43;3.67;;;;;;;;;;5044439;28;20443;-64
2023/06/27 05:40:55;;;;;;;9.13;3.83;;;;;;;;;;5042760;28;20461;-65
2023/06/27 05:43:23;;;;;;;10.30;4.05;;;;;;;;;;5042000;28;20411;-65
2023/06/27 05:45:51;;;;;;;8.90;3.60;;;;;;;;;;5043622;28;20413;-64
2023/06/27 05:48:18;;;;;;;9.65;3.92;;;;;;;;;;5043965;28;20844;-65
2023/06/27 05:50:45;;;;;;;10.30;3.67;;;;;;;;;;5044355;28;20466;-65
2023/06/27 05:53:12;;;;;;;9.93;3.38;;;;;;;;;;5043294;28;20483;-65
2023/06/27 05:55:39;;;;;;;11.57;4.03;;;;;;;;;;5041752;28;20418;-66
2023/06/27 05:58:06;;;;;;;9.85;3.88;;;;;;;;;;5043490;28;20458;-65
2023/06/27 06:00:35;;;;;;;9.05;3.20;;;;;;;;;;5043555;28;20443;-66
2023/06/27 06:03:01;;;;;;;7.68;3.40;;;;;;;;;;5038622;28;20415;-65
2023/06/27 06:05:28;;;;;;;7.97;3.78;;;;;;;;;;5043082;28;20421;-67
2023/06/27 06:07:55;;;;;;;9.83;3.37;;;;;;;;;;5041509;28;20423;-66
2023/06/27 06:10:23;;;;;;;8.98;4.00;;;;;;;;;;5042702;28;20476;-66
2023/06/27 06:12:50;;;;;;;11.07;3.65;;;;;;;;;;5043662;28;20906;-66
2023/06/27 06:15:17;;;;;;;9.18;3.63;;;;;;;;;;5041721;28;20431;-65
2023/06/27 06:17:45;;;;;;;7.20;3.90;;;;;;;;;;5041401;28;20415;-66
2023/06/27 06:20:13;;;;;;;9.80;3.63;;;;;;;;;;5037044;28;20481;-66
2023/06/27 06:22:40;;;;;;;8.57;4.05;;;;;;;;;;5042132;28;20426;-66
2023/06/27 06:25:07;;;;;;;10.87;4.17;;;;;;;;;;5043612;28;20508;-66
2023/06/27 06:27:34;;;;;;;12.88;4.28;;;;;;;;;;5041983;28;20889;-66
2023/06/27 06:30:01;;;;;;;10.17;3.87;;;;;;;;;;5041156;28;20419;-66
2023/06/27 06:32:28;;;;;;;9.48;4.22;;;;;;;;;;5037210;28;20415;-66
2023/06/27 06:34:56;;;;;;;11.43;4.47;;;;;;;;;;5038234;28;20477;-67
2023/06/27 06:37:23;;;;;;;10.48;4.05;;;;;;;;;;5041132;28;20465;-65
2023/06/27 06:39:50;;;;;;;13.23;4.90;;;;;;;;;;5041981;28;20421;-66
2023/06/27 06:42:17;;;;;;;12.70;4.72;;;;;;;;;;5042928;28;20413;-66
2023/06/27 06:44:47;;;;;;;12.30;4.45;;;;;;;;;;5040831;28;20419;-66
2023/06/27 06:47:14;;;;;;;18.88;5.32;;;;;;;;;;5041101;28;20423;-66
2023/06/27 06:49:41;;;;;;;15.05;4.72;;;;;;;;;;5035759;28;20951;-66
2023/06/27 06:52:10;;;;;;;11.90;5.00;;;;;;;;;;5042068;28;20478;-66
2023/06/27 06:54:38;;;;;;;12.32;5.50;;;;;;;;;;5040636;28;20477;-66
2023/06/27 06:57:05;;;;;;;14.07;4.97;;;;;;;;;;5041685;28;20424;-66
2023/06/27 06:59:32;;;;;;;12.00;4.40;;;;;;;;;;5042754;28;20424;-66
2023/06/27 07:01:59;;;;;;;10.85;4.57;;;;;;;;;;5041268;28;20419;-65
2023/06/27 07:04:26;;;;;;;10.07;4.70;;;;;;;;;;5036807;28;20410;-65
2023/06/27 07:06:53;;;;;;;13.07;5.03;;;;;;;;;;5039465;28;20417;-64
2023/06/27 07:09:22;;;;;;;12.13;5.30;;;;;;;;;;5042090;28;20417;-65
2023/06/27 07:11:50;;;;;;;10.97;4.90;;;;;;;;;;5039929;28;20411;-65
2023/06/27 07:14:17;;;;;;;13.23;5.35;;;;;;;;;;5041603;28;20432;-65
2023/06/27 07:16:44;;;;;;;18.48;5.43;;;;;;;;;;5042957;28;20519;-65
2023/06/27 07:19:11;;;;;;;12.13;4.67;;;;;;;;;;5040793;28;20510;-65
2023/06/27 07:21:38;;;;;;;12.70;4.75;;;;;;;;;;5040045;28;20851;-65
2023/06/27 07:24:06;;;;;;;13.75;5.05;;;;;;;;;;5042764;28;20409;-65
2023/06/27 07:26:34;;;;;;;16.75;6.60;;;;;;;;;;5041725;28;20415;-65
2023/06/27 07:29:02;;;;;;;16.67;7.07;;;;;;;;;;5040157;28;20545;-64
2023/06/27 07:31:29;;;;;;;15.10;6.07;;;;;;;;;;5041295;28;20421;-65
2023/06/27 07:33:56;;;;;;;16.77;5.50;;;;;;;;;;5038690;28;20508;-66
2023/06/27 07:36:23;;;;;;;14.88;5.20;;;;;;;;;;5040191;28;20835;-65
2023/06/27 07:38:51;;;;;;;12.73;5.10;;;;;;;;;;5040842;28;20415;-66
2023/06/27 07:41:18;;;;;;;17.43;5.73;;;;;;;;;;5041952;28;20456;-65
2023/06/27 07:43:46;;;;;;;16.52;6.28;;;;;;;;;;5041356;28;20449;-65
2023/06/27 07:46:13;;;;;;;13.97;5.93;;;;;;;;;;5039535;28;20788;-65
2023/06/27 07:48:40;;;;;;;11.73;5.30;;;;;;;;;;5043749;28;20417;-65
2023/06/27 07:51:07;;;;;;;14.98;5.75;;;;;;;;;;5039336;28;20418;-65
2023/06/27 07:53:34;;;;;;;12.90;5.47;;;;;;;;;;5036041;28;20775;-65
2023/06/27 07:56:01;;;;;;;14.25;5.57;;;;;;;;;;5039903;28;20427;-66
2023/06/27 07:58:28;;;;;;;11.45;4.80;;;;;;;;;;5043157;28;20459;-66
2023/06/27 08:00:56;;;;;;;12.68;5.10;;;;;;;;;;5040688;28;20414;-65
2023/06/27 08:03:24;;;;;;;14.98;5.45;;;;;;;;;;5039251;28;20419;-65
2023/06/27 08:05:51;;;;;;;14.48;5.13;;;;;;;;;;5033811;28;20430;-65
2023/06/27 08:08:18;;;;;;;15.93;5.22;;;;;;;;;;5038366;28;20427;-65
2023/06/27 08:10:45;;;;;;;15.20;5.97;;;;;;;;;;5037399;28;20417;-66
2023/06/27 08:13:12;;;;;;;15.63;5.18;;;;;;;;;;5039663;28;20916;-66
2023/06/27 08:15:39;;;;;;;15.73;5.60;;;;;;;;;;5041665;28;20425;-65
2023/06/27 08:18:08;;;;;;;16.17;5.10;;;;;;;;;;5040001;28;20481;-65
2023/06/27 08:20:34;;;;;;;14.82;4.40;;;;;;;;;;5038628;28;20460;-66
2023/06/27 08:23:01;;;;;;;12.50;4.78;;;;;;;;;;5035791;28;20469;-66
2023/06/27 08:25:28;;;;;;;10.27;4.20;;;;;;;;;;5039914;28;20468;-65
2023/06/27 08:27:56;;;;;;;16.10;4.32;;;;;;;;;;5041255;28;20421;-66
2023/06/27 08:30:23;;;;;;;9.48;3.80;;;;;;;;;;5039839;28;20410;-66
2023/06/27 08:32:50;;;;;;;12.63;3.70;;;;;;;;;;5039149;28;20502;-65
2023/06/27 08:35:18;;;;;;;12.32;3.78;;;;;;;;;;5040305;28;20481;-65
2023/06/27 08:37:45;;;;;;;9.35;3.50;;;;;;;;;;5039252;28;20904;-66
2023/06/27 08:40:19;;;;;;;9.50;3.85;;;;;;;;;;5041344;28;20460;-65
2023/06/27 08:42:46;;;;;;;11.35;3.38;;;;;;;;;;5041236;28;20417;-65
2023/06/27 08:45:14;;;;;;;14.20;4.03;;;;;;;;;;5041088;28;20444;-66
2023/06/27 08:47:42;;;;;;;10.25;3.67;;;;;;;;;;5040686;28;20417;-65
2023/06/27 08:50:13;;;;;;;12.25;3.92;;;;;;;;;;5038992;28;20411;-65
2023/06/27 08:52:45;;;;;;;9.88;4.13;;;;;;;;;;5039868;28;20415;-66
2023/06/27 08:55:15;;;;;;;12.88;4.25;;;;;;;;;;5035495;28;20842;-66
2023/06/27 08:57:43;;;;;;;13.40;4.60;;;;;;;;;;5039205;28;20419;-65
2023/06/27 09:00:12;;;;;;;10.77;3.90;;;;;;;;;;5041106;28;20417;-66
2023/06/27 09:02:39;;;;;;;13.15;4.20;;;;;;;;;;5041023;28;20421;-65
2023/06/27 09:05:07;;;;;;;10.75;4.20;;;;;;;;;;5035665;28;20415;-66
2023/06/27 09:07:34;;;;;;;13.82;4.78;;;;;;;;;;5042560;28;20834;-66
2023/06/27 09:10:03;;;;;;;11.60;4.47;;;;;;;;;;5042532;28;20823;-66
2023/06/27 09:12:31;;;;;;;11.95;4.60;;;;;;;;;;5044014;28;20419;-66
2023/06/27 09:14:58;;;;;;;12.55;4.75;;;;;;;;;;5045046;28;20421;-66
2023/06/27 09:17:25;;;;;;;12.57;4.50;;;;;;;;;;5039282;28;21087;-66
2023/06/27 09:19:52;;;;;;;13.35;4.90;;;;;;;;;;5043552;28;20497;-65
2023/06/27 09:22:19;;;;;;;8.85;3.97;;;;;;;;;;5044826;28;20421;-66
2023/06/27 09:24:47;;;;;;;7.93;3.33;;;;;;;;;;5043666;28;20892;-67
2023/06/27 09:30:09;;;;;;;9.30;3.00;;;;;;;;;;5080189;28;20357;-66
2023/06/27 09:32:36;;;;;;;8.57;3.05;;;;;;;;;;5076584;28;20466;-65
2023/06/27 09:35:03;;;;;;;8.52;3.47;;;;;;;;;;5075851;28;20412;-66
2023/06/27 09:37:32;;;;;;;6.88;3.10;;;;;;;;;;5077762;28;20466;-65
2023/06/27 09:39:59;;;;;;;9.47;3.40;;;;;;;;;;5076150;28;20962;-66
2023/06/27 09:42:26;;;;;;;8.77;2.95;;;;;;;;;;5078026;28;20465;-66
2023/06/27 09:44:53;;;;;;;10.35;3.15;;;;;;;;;;5078854;28;20411;-66
2023/06/27 09:47:25;;;;;;;8.07;3.13;;;;;;;;;;5073288;28;20462;-66
2023/06/27 09:49:53;;;;;;;8.55;3.22;;;;;;;;;;5075983;28;20509;-65
2023/06/27 09:52:20;;;;;;;11.60;3.43;;;;;;;;;;5077916;28;20415;-65
2023/06/27 09:54:48;;;;;;;9.25;3.15;;;;;;;;;;5078258;28;20460;-66
2023/06/27 09:57:21;;;;;;;6.68;2.95;;;;;;;;;;5075939;28;20486;-65
2023/06/27 09:59:48;;;;;;;11.55;3.30;;;;;;;;;;5076264;28;20443;-65
2023/06/27 10:02:15;;;;;;;8.43;3.28;;;;;;;;;;5078131;28;20492;-65
2023/06/27 10:04:44;;;;;;;10.57;3.60;;;;;;;;;;5073828;28;20911;-66
2023/06/27 10:07:13;;;;;;;9.57;2.90;;;;;;;;;;5070796;28;20454;-65
2023/06/27 10:09:40;;;;;;;8.05;2.85;;;;;;;;;;5073737;28;20467;-66
2023/06/27 10:12:08;;;;;;;8.20;2.88;;;;;;;;;;5075269;28;20420;-65
2023/06/27 10:14:35;;;;;;;8.88;2.67;;;;;;;;;;5073827;28;20416;-65
2023/06/27 10:17:02;;;;;;;8.05;2.70;;;;;;;;;;5075200;28;20420;-65
2023/06/27 10:19:31;;;;;;;8.18;2.85;;;;;;;;;;5071725;28;20861;-65
2023/06/27 10:22:02;;;;;;;7.57;2.95;;;;;;;;;;5075867;28;20459;-66
2023/06/27 10:24:30;;;;;;;10.60;3.20;;;;;;;;;;5072215;28;20412;-67
2023/06/27 10:26:58;;;;;;;7.32;2.60;;;;;;;;;;5076285;28;20412;-66
2023/06/27 10:29:25;;;;;;;8.10;2.90;;;;;;;;;;5092502;28;20421;-66
2023/06/27 10:31:52;;;;;;;8.35;2.58;;;;;;;;;;5096688;28;20411;-65
2023/06/27 10:34:20;;;;;;;8.68;2.88;;;;;;;;;;5093425;28;21090;-66
2023/06/27 10:36:57;;;;;;;8.95;2.60;;;;;;;;;;5097353;28;20421;-66
2023/06/27 10:39:29;;;;;;;6.53;2.80;;;;;;;;;;5096252;28;20861;-66
2023/06/27 10:42:01;;;;;;;7.30;2.40;;;;;;;;;;5083995;28;20425;-67
2023/06/27 10:44:28;;;;;;;5.38;2.40;;;;;;;;;;5079090;28;20407;-66
2023/06/27 10:47:09;;;;;;;6.30;2.23;;;;;;;;;;5082672;28;20501;-66
2023/06/27 10:49:37;;;;;;;7.83;2.53;;;;;;;;;;5086885;28;20418;-66
2023/06/27 10:52:04;;;;;;;9.40;2.28;;;;;;;;;;5083099;28;20412;-66
2023/06/27 10:54:33;;;;;;;5.25;2.17;;;;;;;;;;5083328;28;20413;-66
2023/06/27 10:57:00;;;;;;;4.50;2.20;;;;;;;;;;5084430;28;20426;-66
2023/06/27 10:59:27;;;;;;;8.25;2.13;;;;;;;;;;5082647;28;20407;-66
2023/06/27 11:02:00;;;;;;;6.20;2.20;;;;;;;;;;5081597;28;20441;-65
2023/06/27 11:04:28;;;;;;;8.63;2.38;;;;;;;;;;5078258;28;20814;-66
2023/06/27 11:07:01;;;;;;;6.90;2.25;;;;;;;;;;5081145;28;20414;-66
2023/06/27 11:09:29;;;;;;;7.30;2.30;;;;;;;;;;5082426;28;20427;-66
2023/06/27 11:12:09;;;;;;;7.95;2.65;;;;;;;;;;5081149;28;20422;-66
2023/06/27 11:14:36;;;;;;;7.45;2.38;;;;;;;;;;5081612;28;20502;-66
2023/06/27 11:17:04;;;;;;;5.28;2.17;;;;;;;;;;5078221;28;20465;-66
2023/06/27 11:19:31;;;;;;;8.77;2.43;;;;;;;;;;5081769;28;20415;-65
2023/06/27 11:21:58;;;;;;;6.35;2.10;;;;;;;;;;5082929;28;20877;-66
2023/06/27 11:24:26;;;;;;;8.35;2.25;;;;;;;;;;5082692;28;20519;-66
2023/06/27 11:26:53;;;;;;;6.85;2.30;;;;;;;;;;5080947;28;20822;-66
2023/06/27 11:29:22;;;;;;;7.32;2.22;;;;;;;;;;5082579;28;20422;-66
2023/06/27 11:31:49;;;;;;;7.75;2.05;;;;;;;;;;5082974;28;20418;-65
2023/06/27 11:34:17;;;;;;;5.00;2.10;;;;;;;;;;5074218;28;20403;-66
2023/06/27 11:36:44;;;;;;;6.10;2.40;;;;;;;;;;5080671;28;20432;-66
2023/06/27 11:39:11;;;;;;;9.02;2.58;;;;;;;;;;5081139;28;20518;-66
2023/06/27 11:41:40;;;;;;;5.83;2.30;;;;;;;;;;5081473;28;20474;-65
2023/06/27 11:44:09;;;;;;;7.72;2.83;;;;;;;;;;5083491;28;20410;-66
2023/06/27 11:46:37;;;;;;;11.13;3.08;;;;;;;;;;5081594;28;20422;-66
2023/06/27 11:49:04;;;;;;;6.93;2.22;;;;;;;;;;5080758;28;20903;-66
2023/06/27 11:51:40;;;;;;;7.10;2.25;;;;;;;;;;5081286;28;20429;-65
2023/06/27 11:54:08;;;;;;;9.77;2.95;;;;;;;;;;5083265;28;20435;-65
2023/06/27 11:56:37;;;;;;;7.63;2.50;;;;;;;;;;5081528;28;20758;-65
2023/06/27 11:59:06;;;;;;;9.32;2.75;;;;;;;;;;5080945;28;20811;-64
2023/06/27 12:01:33;;;;;;;10.50;2.80;;;;;;;;;;5081643;28;20410;-65
2023/06/27 12:04:01;;;;;;;7.93;2.15;;;;;;;;;;5079430;28;20499;-65
2023/06/27 12:06:31;;;;;;;5.18;2.03;;;;;;;;;;5077455;28;20414;-65
2023/06/27 12:08:58;;;;;;;6.43;2.20;;;;;;;;;;5080515;28;20862;-65
2023/06/27 12:11:29;;;;;;;6.40;2.23;;;;;;;;;;5076330;28;20490;-65
2023/06/27 12:13:56;;;;;;;7.47;2.60;;;;;;;;;;5080189;28;20443;-65
2023/06/27 12:16:24;;;;;;;5.57;2.33;;;;;;;;;;5082746;28;20409;-66
2023/06/27 12:18:51;;;;;;;6.65;2.25;;;;;;;;;;5082569;28;20412;-65
2023/06/27 12:21:20;;;;;;;5.73;2.40;;;;;;;;;;5079641;28;20411;-65
2023/06/27 12:23:48;;;;;;;5.82;2.28;;;;;;;;;;5081545;28;20463;-65
2023/06/27 12:26:15;;;;;;;6.50;2.23;;;;;;;;;;5082114;28;20414;-65
2023/06/27 12:28:58;;;;;;;8.38;2.70;;;;;;;;;;5080781;28;20548;-66
2023/06/27 12:31:25;;;;;;;11.10;2.65;;;;;;;;;;5077078;28;20437;-66
2023/06/27 12:33:52;;;;;;;8.45;2.50;;;;;;;;;;5078879;28;20411;-67
2023/06/27 12:36:21;;;;;;;8.40;3.80;;;;;;;;;;5080237;28;20416;-66
2023/06/27 12:38:49;;;;;;;7.18;2.67;;;;;;;;;;5080552;28;20423;-66
2023/06/27 12:41:16;;;;;;;8.68;2.20;;;;;;;;;;5081791;28;20495;-66
2023/06/27 12:43:43;;;;;;;3.63;1.50;;;;;;;;;;5080894;28;20419;-65
2023/06/27 12:46:10;;;;;;;6.00;1.88;;;;;;;;;;5079922;28;20822;-66
2023/06/27 12:48:37;;;;;;;4.38;1.80;;;;;;;;;;5059323;28;20432;-67
2023/06/27 12:51:04;;;;;;;6.80;1.70;;;;;;;;;;5057215;28;20431;-66
2023/06/27 12:53:32;;;;;;;5.10;1.80;;;;;;;;;;5074387;28;20415;-66
2023/06/27 12:56:02;;;;;;;7.63;2.80;;;;;;;;;;5077986;28;20423;-66
2023/06/27 12:58:29;;;;;;;6.10;2.38;;;;;;;;;;5081577;28;20413;-66
2023/06/27 13:00:56;;;;;;;5.05;1.88;;;;;;;;;;5080383;28;20899;-66
2023/06/27 13:03:23;;;;;;;8.25;1.70;;;;;;;;;;5078768;28;20427;-66
2023/06/27 13:05:51;;;;;;;5.20;1.42;;;;;;;;;;5061853;28;20406;-68
2023/06/27 13:08:18;;;;;;;4.53;1.60;;;;;;;;;;5074062;28;20927;-70
2023/06/27 13:10:47;;;;;;;5.60;1.97;;;;;;;;;;5075301;28;20502;-68
2023/06/27 13:13:14;;;;;;;6.88;1.80;;;;;;;;;;5073724;28;20475;-68
2023/06/27 13:15:41;;;;;;;7.53;1.90;;;;;;;;;;5080705;28;20461;-66
2023/06/27 13:18:08;;;;;;;6.70;1.90;;;;;;;;;;5076350;28;20459;-67
2023/06/27 13:20:35;;;;;;;5.63;1.80;;;;;;;;;;5073564;28;20868;-67
2023/06/27 13:23:02;;;;;;;5.28;1.80;;;;;;;;;;5072631;28;20446;-67
2023/06/27 13:25:29;;;;;;;5.28;1.65;;;;;;;;;;5080818;28;20409;-67
2023/06/27 13:27:58;;;;;;;5.60;1.98;;;;;;;;;;5075706;28;20433;-66
2023/06/27 13:30:25;;;;;;;5.30;1.80;;;;;;;;;;5074443;28;20425;-66
2023/06/27 13:32:52;;;;;;;4.95;1.90;;;;;;;;;;5074756;28;20475;-67
2023/06/27 13:35:19;;;;;;;6.80;1.80;;;;;;;;;;5070198;28;20473;-66
2023/06/27 13:37:46;;;;;;;4.38;1.77;;;;;;;;;;5072804;28;20415;-67
2023/06/27 13:40:14;;;;;;;3.80;1.58;;;;;;;;;;5075398;28;20463;-67
2023/06/27 13:42:41;;;;;;;3.55;1.70;;;;;;;;;;5074834;28;20887;-66
2023/06/27 13:45:10;;;;;;;5.60;1.70;;;;;;;;;;5071987;28;20476;-69
2023/06/27 13:47:37;;;;;;;4.88;1.90;;;;;;;;;;5067744;28;20415;-68
2023/06/27 13:50:04;;;;;;;3.83;1.50;;;;;;;;;;5078281;28;20895;-68
2023/06/27 13:52:31;;;;;;;5.60;1.63;;;;;;;;;;5077965;28;21014;-69
2023/06/27 13:54:58;;;;;;;7.30;1.90;;;;;;;;;;5078252;28;20415;-71
2023/06/27 13:57:25;;;;;;;3.60;1.77;;;;;;;;;;5080541;28;20923;-68
2023/06/27 13:59:52;;;;;;;5.13;1.77;;;;;;;;;;5075075;28;20438;-73
2023/06/27 14:02:22;;;;;;;4.88;1.63;;;;;;;;;;5069149;28;20419;-72
2023/06/27 14:04:50;;;;;;;4.70;1.70;;;;;;;;;;5071911;28;20448;-72
2023/06/27 14:07:17;;;;;;;4.97;1.50;;;;;;;;;;5062439;28;20461;-71
2023/06/27 14:09:44;;;;;;;3.00;1.30;;;;;;;;;;5072670;28;20457;-70
2023/06/27 14:12:13;;;;;;;4.10;1.20;;;;;;;;;;5070392;28;21000;-69
2023/06/27 14:14:40;;;;;;;2.67;1.20;;;;;;;;;;5073898;28;20406;-71
2023/06/27 14:17:07;;;;;;;2.78;1.30;;;;;;;;;;5072224;28;20414;-70
2023/06/27 14:19:35;;;;;;;3.07;1.40;;;;;;;;;;5084084;28;20406;-71
2023/06/27 14:22:03;;;;;;;4.47;1.58;;;;;;;;;;5081585;28;20459;-71
2023/06/27 14:24:29;;;;;;;6.07;1.58;;;;;;;;;;5077866;28;20819;-69
2023/06/27 14:26:56;;;;;;;4.28;1.40;;;;;;;;;;5074090;28;20507;-69
2023/06/27 14:29:23;;;;;;;3.90;1.30;;;;;;;;;;5083615;28;20467;-69
2023/06/27 14:31:50;;;;;;;2.20;1.20;;;;;;;;;;5076439;28;20445;-69
2023/06/27 14:34:17;;;;;;;6.70;2.80;;;;;;;;;;5079173;28;20477;-69
2023/06/27 14:36:46;;;;;;;4.55;1.55;;;;;;;;;;5083993;28;20409;-69
2023/06/27 14:39:13;;;;;;;1.58;0.98;;;;;;;;;;5078856;28;20445;-68
2023/06/27 14:41:40;;;;;;;3.70;1.00;;;;;;;;;;5080908;28;20467;-68
2023/06/27 14:44:07;;;;;;;4.80;1.45;;;;;;;;;;5078394;28;20403;-68
2023/06/27 14:46:34;;;;;;;3.75;1.08;;;;;;;;;;5082605;28;20539;-68